sensor_id;sensor_type;location;lat;lon;timestamp;temperature;humidity
15483;DHT22;7843;50.330;7.312;2023-05-07T00:00:20;12.30;99.90
15483;DHT22;7843;50.330;7.312;2023-05-07T00:02:47;12.30;99.90
15483;DHT22;7843;50.330;7.312;2023-05-07T00:05:14;12.30;99.90
15483;DHT22;7843;50.330;7.312;2023-05-07T00:07:41;12.30;99.90
15483;DHT22;7843;50.330;7.312;2023-05-07T00:10:09;12.20;99.90
15483;DHT22;7843;50.330;7.312;2023-05-07T00:12:36;12.20;99.90
15483;DHT22;7843;50.330;7.312;2023-05-07T00:15:03;12.10;99.90
15483;DHT22;7843;50.330;7.312;2023-05-07T00:17:30;12.10;99.90
15483;DHT22;7843;50.330;7.312;2023-05-07T00:19:57;12.10;99.90
15483;DHT22;7843;50.330;7.312;2023-05-07T00:22:23;12.00;99.90
15483;DHT22;7843;50.330;7.312;2023-05-07T00:24:50;12.00;99.90
15483;DHT22;7843;50.330;7.312;2023-05-07T00:27:17;12.10;99.90
15483;DHT22;7843;50.330;7.312;2023-05-07T00:29:43;12.20;99.90
15483;DHT22;7843;50.330;7.312;2023-05-07T00:32:10;12.30;99.90
15483;DHT22;7843;50.330;7.312;2023-05-07T00:34:37;12.40;99.90
15483;DHT22;7843;50.330;7.312;2023-05-07T00:37:03;12.40;99.90
15483;DHT22;7843;50.330;7.312;2023-05-07T00:39:32;12.50;99.90
15483;DHT22;7843;50.330;7.312;2023-05-07T00:41:59;12.50;99.90
15483;DHT22;7843;50.330;7.312;2023-05-07T00:44:27;12.50;99.90
15483;DHT22;7843;50.330;7.312;2023-05-07T00:46:55;12.60;99.90
15483;DHT22;7843;50.330;7.312;2023-05-07T00:49:31;12.50;99.90
15483;DHT22;7843;50.330;7.312;2023-05-07T00:52:02;12.50;99.90
15483;DHT22;7843;50.330;7.312;2023-05-07T00:54:29;12.50;99.90
15483;DHT22;7843;50.330;7.312;2023-05-07T00:56:56;12.50;99.90
15483;DHT22;7843;50.330;7.312;2023-05-07T00:59:23;12.50;99.90
15483;DHT22;7843;50.330;7.312;2023-05-07T01:01:50;12.50;99.90
15483;DHT22;7843;50.330;7.312;2023-05-07T01:04:16;12.50;99.90
15483;DHT22;7843;50.330;7.312;2023-05-07T01:06:44;12.50;99.90
15483;DHT22;7843;50.330;7.312;2023-05-07T01:09:12;12.50;99.90
15483;DHT22;7843;50.330;7.312;2023-05-07T01:11:39;12.50;99.90
15483;DHT22;7843;50.330;7.312;2023-05-07T01:14:07;12.40;99.90
15483;DHT22;7843;50.330;7.312;2023-05-07T01:16:36;12.40;99.90
15483;DHT22;7843;50.330;7.312;2023-05-07T01:19:03;12.30;99.90
15483;DHT22;7843;50.330;7.312;2023-05-07T01:21:32;12.20;99.90
15483;DHT22;7843;50.330;7.312;2023-05-07T01:23:59;12.20;99.90
15483;DHT22;7843;50.330;7.312;2023-05-07T01:26:26;12.10;99.90
15483;DHT22;7843;50.330;7.312;2023-05-07T01:28:53;12.10;99.90
15483;DHT22;7843;50.330;7.312;2023-05-07T01:31:20;12.10;99.90
15483;DHT22;7843;50.330;7.312;2023-05-07T01:33:48;12.00;99.90
15483;DHT22;7843;50.330;7.312;2023-05-07T01:36:17;12.00;99.90
15483;DHT22;7843;50.330;7.312;2023-05-07T01:38:44;12.00;99.90
15483;DHT22;7843;50.330;7.312;2023-05-07T01:41:12;12.00;99.90
15483;DHT22;7843;50.330;7.312;2023-05-07T01:43:41;11.90;99.90
15483;DHT22;7843;50.330;7.312;2023-05-07T01:46:09;11.90;99.90
15483;DHT22;7843;50.330;7.312;2023-05-07T01:48:37;11.90;99.90
15483;DHT22;7843;50.330;7.312;2023-05-07T01:51:04;12.00;99.90
15483;DHT22;7843;50.330;7.312;2023-05-07T01:53:39;12.00;99.90
15483;DHT22;7843;50.330;7.312;2023-05-07T01:56:07;12.10;99.90
15483;DHT22;7843;50.330;7.312;2023-05-07T01:58:34;12.10;99.90
15483;DHT22;7843;50.330;7.312;2023-05-07T02:01:00;12.10;99.90
15483;DHT22;7843;50.330;7.312;2023-05-07T02:03:27;12.10;99.90
15483;DHT22;7843;50.330;7.312;2023-05-07T02:05:54;12.10;99.90
15483;DHT22;7843;50.330;7.312;2023-05-07T02:08:20;12.10;99.90
15483;DHT22;7843;50.330;7.312;2023-05-07T02:10:47;12.20;99.90
15483;DHT22;7843;50.330;7.312;2023-05-07T02:13:14;12.20;99.90
15483;DHT22;7843;50.330;7.312;2023-05-07T02:15:40;12.20;99.90
15483;DHT22;7843;50.330;7.312;2023-05-07T02:18:08;12.20;99.90
15483;DHT22;7843;50.330;7.312;2023-05-07T02:20:35;12.20;99.90
15483;DHT22;7843;50.330;7.312;2023-05-07T02:23:02;12.20;99.90
15483;DHT22;7843;50.330;7.312;2023-05-07T02:25:29;12.20;99.90
15483;DHT22;7843;50.330;7.312;2023-05-07T02:27:56;12.20;99.90
15483;DHT22;7843;50.330;7.312;2023-05-07T02:30:23;12.30;99.90
15483;DHT22;7843;50.330;7.312;2023-05-07T02:32:50;12.30;99.90
15483;DHT22;7843;50.330;7.312;2023-05-07T02:35:17;12.30;99.90
15483;DHT22;7843;50.330;7.312;2023-05-07T02:37:43;12.30;99.90
15483;DHT22;7843;50.330;7.312;2023-05-07T02:40:11;12.20;99.90
15483;DHT22;7843;50.330;7.312;2023-05-07T02:42:38;12.20;99.90
15483;DHT22;7843;50.330;7.312;2023-05-07T02:45:05;12.30;99.90
15483;DHT22;7843;50.330;7.312;2023-05-07T02:47:32;12.30;99.90
15483;DHT22;7843;50.330;7.312;2023-05-07T02:49:58;12.30;99.90
15483;DHT22;7843;50.330;7.312;2023-05-07T02:52:25;12.30;99.90
15483;DHT22;7843;50.330;7.312;2023-05-07T02:54:52;12.30;99.90
15483;DHT22;7843;50.330;7.312;2023-05-07T02:57:18;12.20;99.90
15483;DHT22;7843;50.330;7.312;2023-05-07T02:59:45;12.20;99.90
15483;DHT22;7843;50.330;7.312;2023-05-07T03:02:12;12.20;99.90
15483;DHT22;7843;50.330;7.312;2023-05-07T03:04:40;12.10;99.90
15483;DHT22;7843;50.330;7.312;2023-05-07T03:07:07;12.10;99.90
15483;DHT22;7843;50.330;7.312;2023-05-07T03:09:34;12.10;99.90
15483;DHT22;7843;50.330;7.312;2023-05-07T03:12:01;12.00;99.90
15483;DHT22;7843;50.330;7.312;2023-05-07T03:14:28;12.00;99.90
15483;DHT22;7843;50.330;7.312;2023-05-07T03:16:54;12.00;99.90
15483;DHT22;7843;50.330;7.312;2023-05-07T03:19:21;12.00;99.90
15483;DHT22;7843;50.330;7.312;2023-05-07T03:21:48;11.90;99.90
15483;DHT22;7843;50.330;7.312;2023-05-07T03:24:14;11.90;99.90
15483;DHT22;7843;50.330;7.312;2023-05-07T03:26:41;11.90;99.90
15483;DHT22;7843;50.330;7.312;2023-05-07T03:29:08;11.80;99.90
15483;DHT22;7843;50.330;7.312;2023-05-07T03:31:34;11.80;99.90
15483;DHT22;7843;50.330;7.312;2023-05-07T03:34:01;11.80;99.90
15483;DHT22;7843;50.330;7.312;2023-05-07T03:36:28;11.80;99.90
15483;DHT22;7843;50.330;7.312;2023-05-07T03:38:54;11.80;99.90
15483;DHT22;7843;50.330;7.312;2023-05-07T03:41:21;11.80;99.90
15483;DHT22;7843;50.330;7.312;2023-05-07T03:43:48;11.80;99.90
15483;DHT22;7843;50.330;7.312;2023-05-07T03:46:14;11.70;99.90
15483;DHT22;7843;50.330;7.312;2023-05-07T03:48:41;11.70;99.90
15483;DHT22;7843;50.330;7.312;2023-05-07T03:51:08;11.80;99.90
15483;DHT22;7843;50.330;7.312;2023-05-07T03:53:34;11.80;99.90
15483;DHT22;7843;50.330;7.312;2023-05-07T03:56:01;11.80;99.90
15483;DHT22;7843;50.330;7.312;2023-05-07T03:58:28;11.90;99.90
15483;DHT22;7843;50.330;7.312;2023-05-07T04:00:55;11.90;99.90
15483;DHT22;7843;50.330;7.312;2023-05-07T04:03:21;12.00;99.90
15483;DHT22;7843;50.330;7.312;2023-05-07T04:05:48;12.00;99.90
15483;DHT22;7843;50.330;7.312;2023-05-07T04:08:15;12.00;99.90
15483;DHT22;7843;50.330;7.312;2023-05-07T04:10:42;12.00;99.90
15483;DHT22;7843;50.330;7.312;2023-05-07T04:13:08;12.00;99.90
15483;DHT22;7843;50.330;7.312;2023-05-07T04:15:35;12.00;99.90
15483;DHT22;7843;50.330;7.312;2023-05-07T04:18:02;12.00;99.90
15483;DHT22;7843;50.330;7.312;2023-05-07T04:20:29;12.00;99.90
15483;DHT22;7843;50.330;7.312;2023-05-07T04:22:56;12.00;99.90
15483;DHT22;7843;50.330;7.312;2023-05-07T04:25:22;12.00;99.90
15483;DHT22;7843;50.330;7.312;2023-05-07T04:27:52;12.00;99.90
15483;DHT22;7843;50.330;7.312;2023-05-07T04:30:19;12.10;99.90
15483;DHT22;7843;50.330;7.312;2023-05-07T04:32:46;12.10;99.90
15483;DHT22;7843;50.330;7.312;2023-05-07T04:35:14;12.10;99.90
15483;DHT22;7843;50.330;7.312;2023-05-07T04:37:41;12.20;99.90
15483;DHT22;7843;50.330;7.312;2023-05-07T04:40:08;12.30;99.90
15483;DHT22;7843;50.330;7.312;2023-05-07T04:42:34;12.30;99.90
15483;DHT22;7843;50.330;7.312;2023-05-07T04:45:02;12.40;99.90
15483;DHT22;7843;50.330;7.312;2023-05-07T04:47:29;12.40;99.90
15483;DHT22;7843;50.330;7.312;2023-05-07T04:49:57;12.40;99.90
15483;DHT22;7843;50.330;7.312;2023-05-07T04:52:24;12.50;99.90
15483;DHT22;7843;50.330;7.312;2023-05-07T04:54:52;12.60;99.90
15483;DHT22;7843;50.330;7.312;2023-05-07T04:57:19;12.60;99.90
15483;DHT22;7843;50.330;7.312;2023-05-07T04:59:46;12.70;99.90
15483;DHT22;7843;50.330;7.312;2023-05-07T05:02:12;12.70;99.90
15483;DHT22;7843;50.330;7.312;2023-05-07T05:04:39;12.80;99.90
15483;DHT22;7843;50.330;7.312;2023-05-07T05:07:06;12.80;99.90
15483;DHT22;7843;50.330;7.312;2023-05-07T05:09:32;12.80;99.90
15483;DHT22;7843;50.330;7.312;2023-05-07T05:11:59;12.90;99.90
15483;DHT22;7843;50.330;7.312;2023-05-07T05:14:26;12.80;99.90
15483;DHT22;7843;50.330;7.312;2023-05-07T05:16:53;12.90;99.90
15483;DHT22;7843;50.330;7.312;2023-05-07T05:19:19;12.90;99.90
15483;DHT22;7843;50.330;7.312;2023-05-07T05:21:46;13.00;99.90
15483;DHT22;7843;50.330;7.312;2023-05-07T05:24:13;13.00;99.90
15483;DHT22;7843;50.330;7.312;2023-05-07T05:26:40;13.20;99.90
15483;DHT22;7843;50.330;7.312;2023-05-07T05:29:06;13.30;99.90
15483;DHT22;7843;50.330;7.312;2023-05-07T05:31:34;13.40;99.90
15483;DHT22;7843;50.330;7.312;2023-05-07T05:34:02;13.50;99.90
15483;DHT22;7843;50.330;7.312;2023-05-07T05:36:29;13.70;99.90
15483;DHT22;7843;50.330;7.312;2023-05-07T05:38:57;13.90;99.90
15483;DHT22;7843;50.330;7.312;2023-05-07T05:41:23;14.10;99.90
15483;DHT22;7843;50.330;7.312;2023-05-07T05:43:50;14.30;99.90
15483;DHT22;7843;50.330;7.312;2023-05-07T05:46:17;14.50;99.90
15483;DHT22;7843;50.330;7.312;2023-05-07T05:48:43;14.60;99.90
15483;DHT22;7843;50.330;7.312;2023-05-07T05:51:10;14.80;99.90
15483;DHT22;7843;50.330;7.312;2023-05-07T05:53:37;14.90;99.90
15483;DHT22;7843;50.330;7.312;2023-05-07T05:56:04;14.90;99.90
15483;DHT22;7843;50.330;7.312;2023-05-07T05:58:31;15.00;99.90
15483;DHT22;7843;50.330;7.312;2023-05-07T06:00:58;15.00;99.90
15483;DHT22;7843;50.330;7.312;2023-05-07T06:03:25;15.00;99.90
15483;DHT22;7843;50.330;7.312;2023-05-07T06:05:52;15.00;99.90
15483;DHT22;7843;50.330;7.312;2023-05-07T06:08:19;15.00;99.90
15483;DHT22;7843;50.330;7.312;2023-05-07T06:10:46;15.00;99.90
15483;DHT22;7843;50.330;7.312;2023-05-07T06:13:13;15.00;99.90
15483;DHT22;7843;50.330;7.312;2023-05-07T06:15:39;15.10;99.90
15483;DHT22;7843;50.330;7.312;2023-05-07T06:18:06;15.10;99.90
15483;DHT22;7843;50.330;7.312;2023-05-07T06:20:33;15.10;99.90
15483;DHT22;7843;50.330;7.312;2023-05-07T06:22:59;15.20;99.90
15483;DHT22;7843;50.330;7.312;2023-05-07T06:25:26;15.20;99.90
15483;DHT22;7843;50.330;7.312;2023-05-07T06:27:53;15.30;99.90
15483;DHT22;7843;50.330;7.312;2023-05-07T06:30:19;15.30;99.90
15483;DHT22;7843;50.330;7.312;2023-05-07T06:32:46;15.40;99.90
15483;DHT22;7843;50.330;7.312;2023-05-07T06:35:13;15.40;99.90
15483;DHT22;7843;50.330;7.312;2023-05-07T06:37:41;15.40;99.90
15483;DHT22;7843;50.330;7.312;2023-05-07T06:40:09;15.50;99.90
15483;DHT22;7843;50.330;7.312;2023-05-07T06:42:36;15.50;99.90
15483;DHT22;7843;50.330;7.312;2023-05-07T06:45:04;15.60;99.90
15483;DHT22;7843;50.330;7.312;2023-05-07T06:47:30;15.70;99.90
15483;DHT22;7843;50.330;7.312;2023-05-07T06:49:57;15.70;99.90
15483;DHT22;7843;50.330;7.312;2023-05-07T06:52:24;15.90;99.90
15483;DHT22;7843;50.330;7.312;2023-05-07T06:54:51;15.90;99.90
15483;DHT22;7843;50.330;7.312;2023-05-07T06:57:17;15.90;99.90
15483;DHT22;7843;50.330;7.312;2023-05-07T06:59:44;15.90;99.90
15483;DHT22;7843;50.330;7.312;2023-05-07T07:02:11;15.90;99.90
15483;DHT22;7843;50.330;7.312;2023-05-07T07:04:37;15.90;99.90
15483;DHT22;7843;50.330;7.312;2023-05-07T07:07:05;16.00;99.90
15483;DHT22;7843;50.330;7.312;2023-05-07T07:09:31;16.00;99.90
15483;DHT22;7843;50.330;7.312;2023-05-07T07:11:58;16.10;99.90
15483;DHT22;7843;50.330;7.312;2023-05-07T07:14:25;16.10;99.90
15483;DHT22;7843;50.330;7.312;2023-05-07T07:16:52;16.20;99.90
15483;DHT22;7843;50.330;7.312;2023-05-07T07:19:18;16.30;99.90
15483;DHT22;7843;50.330;7.312;2023-05-07T07:21:46;16.20;99.90
15483;DHT22;7843;50.330;7.312;2023-05-07T07:24:14;16.20;99.90
15483;DHT22;7843;50.330;7.312;2023-05-07T07:26:45;16.30;99.90
15483;DHT22;7843;50.330;7.312;2023-05-07T07:29:12;16.50;99.90
15483;DHT22;7843;50.330;7.312;2023-05-07T07:31:39;16.40;99.90
15483;DHT22;7843;50.330;7.312;2023-05-07T07:34:05;16.60;99.90
15483;DHT22;7843;50.330;7.312;2023-05-07T07:36:32;16.60;99.90
15483;DHT22;7843;50.330;7.312;2023-05-07T07:39:04;16.70;99.90
15483;DHT22;7843;50.330;7.312;2023-05-07T07:41:31;16.80;99.90
15483;DHT22;7843;50.330;7.312;2023-05-07T07:43:57;16.90;99.70
15483;DHT22;7843;50.330;7.312;2023-05-07T07:46:24;17.00;99.40
15483;DHT22;7843;50.330;7.312;2023-05-07T07:48:51;17.10;98.70
15483;DHT22;7843;50.330;7.312;2023-05-07T07:51:17;17.30;98.90
15483;DHT22;7843;50.330;7.312;2023-05-07T07:53:44;17.40;97.80
15483;DHT22;7843;50.330;7.312;2023-05-07T07:56:11;17.50;98.10
15483;DHT22;7843;50.330;7.312;2023-05-07T07:58:38;17.60;98.30
15483;DHT22;7843;50.330;7.312;2023-05-07T08:01:05;17.80;97.90
15483;DHT22;7843;50.330;7.312;2023-05-07T08:03:32;18.00;97.40
15483;DHT22;7843;50.330;7.312;2023-05-07T08:05:59;18.10;96.90
15483;DHT22;7843;50.330;7.312;2023-05-07T08:08:26;18.30;96.60
15483;DHT22;7843;50.330;7.312;2023-05-07T08:10:53;18.40;96.50
15483;DHT22;7843;50.330;7.312;2023-05-07T08:13:20;18.60;95.20
15483;DHT22;7843;50.330;7.312;2023-05-07T08:15:46;18.60;94.60
15483;DHT22;7843;50.330;7.312;2023-05-07T08:18:13;18.60;94.30
15483;DHT22;7843;50.330;7.312;2023-05-07T08:20:40;18.60;94.30
15483;DHT22;7843;50.330;7.312;2023-05-07T08:23:07;18.50;94.60
15483;DHT22;7843;50.330;7.312;2023-05-07T08:25:35;18.60;94.80
15483;DHT22;7843;50.330;7.312;2023-05-07T08:28:01;18.50;93.90
15483;DHT22;7843;50.330;7.312;2023-05-07T08:30:29;18.50;94.50
15483;DHT22;7843;50.330;7.312;2023-05-07T08:32:56;18.50;94.60
15483;DHT22;7843;50.330;7.312;2023-05-07T08:35:23;18.60;94.50
15483;DHT22;7843;50.330;7.312;2023-05-07T08:37:50;18.70;94.50
15483;DHT22;7843;50.330;7.312;2023-05-07T08:40:17;18.70;94.00
15483;DHT22;7843;50.330;7.312;2023-05-07T08:42:44;18.70;93.80
15483;DHT22;7843;50.330;7.312;2023-05-07T08:45:11;18.80;93.20
15483;DHT22;7843;50.330;7.312;2023-05-07T08:47:44;18.80;93.50
15483;DHT22;7843;50.330;7.312;2023-05-07T08:50:11;19.00;93.50
15483;DHT22;7843;50.330;7.312;2023-05-07T08:52:41;19.10;92.10
15483;DHT22;7843;50.330;7.312;2023-05-07T08:55:09;19.20;93.20
15483;DHT22;7843;50.330;7.312;2023-05-07T08:57:36;19.20;93.30
15483;DHT22;7843;50.330;7.312;2023-05-07T09:00:06;19.10;92.80
15483;DHT22;7843;50.330;7.312;2023-05-07T09:02:35;19.00;92.90
15483;DHT22;7843;50.330;7.312;2023-05-07T09:05:03;19.10;93.00
15483;DHT22;7843;50.330;7.312;2023-05-07T09:07:30;19.20;92.90
15483;DHT22;7843;50.330;7.312;2023-05-07T09:09:57;19.30;92.10
15483;DHT22;7843;50.330;7.312;2023-05-07T09:12:24;19.20;92.30
15483;DHT22;7843;50.330;7.312;2023-05-07T09:14:51;19.30;92.20
15483;DHT22;7843;50.330;7.312;2023-05-07T09:17:17;19.30;92.70
15483;DHT22;7843;50.330;7.312;2023-05-07T09:19:45;19.30;91.80
15483;DHT22;7843;50.330;7.312;2023-05-07T09:22:14;19.40;92.80
15483;DHT22;7843;50.330;7.312;2023-05-07T09:24:41;19.50;92.10
15483;DHT22;7843;50.330;7.312;2023-05-07T09:27:13;19.60;91.70
15483;DHT22;7843;50.330;7.312;2023-05-07T09:29:40;19.80;92.70
15483;DHT22;7843;50.330;7.312;2023-05-07T09:32:08;20.00;91.30
15483;DHT22;7843;50.330;7.312;2023-05-07T09:34:35;20.10;91.30
15483;DHT22;7843;50.330;7.312;2023-05-07T09:37:04;20.20;90.90
15483;DHT22;7843;50.330;7.312;2023-05-07T09:39:45;20.40;91.10
15483;DHT22;7843;50.330;7.312;2023-05-07T09:42:13;20.60;90.50
15483;DHT22;7843;50.330;7.312;2023-05-07T09:44:43;20.70;88.70
15483;DHT22;7843;50.330;7.312;2023-05-07T09:47:10;20.80;89.40
15483;DHT22;7843;50.330;7.312;2023-05-07T09:49:39;20.90;86.60
15483;DHT22;7843;50.330;7.312;2023-05-07T09:52:08;20.80;85.90
15483;DHT22;7843;50.330;7.312;2023-05-07T09:54:37;21.00;86.20
15483;DHT22;7843;50.330;7.312;2023-05-07T09:57:07;21.20;87.40
15483;DHT22;7843;50.330;7.312;2023-05-07T09:59:37;21.30;87.20
15483;DHT22;7843;50.330;7.312;2023-05-07T10:02:05;21.60;86.60
15483;DHT22;7843;50.330;7.312;2023-05-07T10:04:33;21.70;86.40
15483;DHT22;7843;50.330;7.312;2023-05-07T10:07:00;21.90;86.20
15483;DHT22;7843;50.330;7.312;2023-05-07T10:09:28;22.30;85.60
15483;DHT22;7843;50.330;7.312;2023-05-07T10:11:56;22.70;83.20
15483;DHT22;7843;50.330;7.312;2023-05-07T10:14:23;23.10;83.20
15483;DHT22;7843;50.330;7.312;2023-05-07T10:16:51;23.50;82.90
15483;DHT22;7843;50.330;7.312;2023-05-07T10:19:20;23.70;80.00
15483;DHT22;7843;50.330;7.312;2023-05-07T10:21:54;23.80;78.60
15483;DHT22;7843;50.330;7.312;2023-05-07T10:24:29;24.10;77.90
15483;DHT22;7843;50.330;7.312;2023-05-07T10:26:59;23.90;78.50
15483;DHT22;7843;50.330;7.312;2023-05-07T10:29:37;23.90;78.70
15483;DHT22;7843;50.330;7.312;2023-05-07T10:34:41;24.10;77.80
15483;DHT22;7843;50.330;7.312;2023-05-07T10:37:10;24.30;76.00
15483;DHT22;7843;50.330;7.312;2023-05-07T10:39:38;24.30;76.10
15483;DHT22;7843;50.330;7.312;2023-05-07T10:42:12;24.40;78.40
15483;DHT22;7843;50.330;7.312;2023-05-07T10:44:39;24.50;76.10
15483;DHT22;7843;50.330;7.312;2023-05-07T10:49:37;25.20;75.90
15483;DHT22;7843;50.330;7.312;2023-05-07T10:54:41;25.80;72.80
15483;DHT22;7843;50.330;7.312;2023-05-07T10:57:34;25.70;73.00
15483;DHT22;7843;50.330;7.312;2023-05-07T11:00:13;26.10;71.90
15483;DHT22;7843;50.330;7.312;2023-05-07T11:05:31;26.60;69.60
15483;DHT22;7843;50.330;7.312;2023-05-07T11:08:00;26.90;67.60
15483;DHT22;7843;50.330;7.312;2023-05-07T11:10:53;27.00;67.70
15483;DHT22;7843;50.330;7.312;2023-05-07T11:13:45;27.30;67.20
15483;DHT22;7843;50.330;7.312;2023-05-07T11:16:23;26.70;68.80
15483;DHT22;7843;50.330;7.312;2023-05-07T11:18:54;26.20;69.90
15483;DHT22;7843;50.330;7.312;2023-05-07T11:24:02;25.50;72.20
15483;DHT22;7843;50.330;7.312;2023-05-07T11:26:40;25.70;72.70
15483;DHT22;7843;50.330;7.312;2023-05-07T11:29:12;26.00;72.20
15483;DHT22;7843;50.330;7.312;2023-05-07T11:31:39;26.40;71.20
15483;DHT22;7843;50.330;7.312;2023-05-07T11:34:06;27.10;69.90
15483;DHT22;7843;50.330;7.312;2023-05-07T11:36:34;27.20;68.60
15483;DHT22;7843;50.330;7.312;2023-05-07T11:39:01;26.90;68.60
15483;DHT22;7843;50.330;7.312;2023-05-07T11:41:35;26.30;68.80
15483;DHT22;7843;50.330;7.312;2023-05-07T11:44:02;26.10;69.30
15483;DHT22;7843;50.330;7.312;2023-05-07T11:46:29;26.20;69.80
15483;DHT22;7843;50.330;7.312;2023-05-07T11:48:56;26.40;71.10
15483;DHT22;7843;50.330;7.312;2023-05-07T11:51:24;25.90;69.80
15483;DHT22;7843;50.330;7.312;2023-05-07T11:53:53;25.50;71.70
15483;DHT22;7843;50.330;7.312;2023-05-07T11:56:20;25.20;74.70
15483;DHT22;7843;50.330;7.312;2023-05-07T11:58:48;25.00;71.20
15483;DHT22;7843;50.330;7.312;2023-05-07T12:01:15;25.80;67.40
15483;DHT22;7843;50.330;7.312;2023-05-07T12:03:44;26.40;65.60
15483;DHT22;7843;50.330;7.312;2023-05-07T12:06:14;27.50;65.50
15483;DHT22;7843;50.330;7.312;2023-05-07T12:08:42;28.70;62.50
15483;DHT22;7843;50.330;7.312;2023-05-07T12:13:44;29.40;62.00
15483;DHT22;7843;50.330;7.312;2023-05-07T12:16:11;30.20;58.00
15483;DHT22;7843;50.330;7.312;2023-05-07T12:18:39;31.10;58.70
15483;DHT22;7843;50.330;7.312;2023-05-07T12:21:06;32.10;54.90
15483;DHT22;7843;50.330;7.312;2023-05-07T12:23:35;33.10;52.40
15483;DHT22;7843;50.330;7.312;2023-05-07T12:26:02;33.80;52.10
15483;DHT22;7843;50.330;7.312;2023-05-07T12:28:36;34.40;51.10
15483;DHT22;7843;50.330;7.312;2023-05-07T12:31:04;34.70;50.70
15483;DHT22;7843;50.330;7.312;2023-05-07T12:33:32;34.90;49.20
15483;DHT22;7843;50.330;7.312;2023-05-07T12:36:03;35.20;52.20
15483;DHT22;7843;50.330;7.312;2023-05-07T12:38:35;35.80;49.40
15483;DHT22;7843;50.330;7.312;2023-05-07T12:41:02;35.20;48.10
15483;DHT22;7843;50.330;7.312;2023-05-07T12:43:30;34.60;49.10
15483;DHT22;7843;50.330;7.312;2023-05-07T12:45:59;34.70;49.10
15483;DHT22;7843;50.330;7.312;2023-05-07T12:48:27;35.10;48.50
15483;DHT22;7843;50.330;7.312;2023-05-07T12:50:55;35.50;47.00
15483;DHT22;7843;50.330;7.312;2023-05-07T12:53:23;35.00;49.10
15483;DHT22;7843;50.330;7.312;2023-05-07T12:55:53;34.10;48.80
15483;DHT22;7843;50.330;7.312;2023-05-07T12:58:20;33.20;51.10
15483;DHT22;7843;50.330;7.312;2023-05-07T13:00:49;32.90;52.70
15483;DHT22;7843;50.330;7.312;2023-05-07T13:03:33;33.00;53.70
15483;DHT22;7843;50.330;7.312;2023-05-07T13:06:03;32.60;54.10
15483;DHT22;7843;50.330;7.312;2023-05-07T13:08:37;32.40;54.00
15483;DHT22;7843;50.330;7.312;2023-05-07T13:11:04;32.40;54.20
15483;DHT22;7843;50.330;7.312;2023-05-07T13:13:32;32.10;57.00
15483;DHT22;7843;50.330;7.312;2023-05-07T13:15:59;31.80;58.00
15483;DHT22;7843;50.330;7.312;2023-05-07T13:18:27;31.60;57.90
15483;DHT22;7843;50.330;7.312;2023-05-07T13:20:54;31.30;57.60
15483;DHT22;7843;50.330;7.312;2023-05-07T13:23:20;30.70;58.90
15483;DHT22;7843;50.330;7.312;2023-05-07T13:25:48;30.10;59.60
15483;DHT22;7843;50.330;7.312;2023-05-07T13:28:14;29.80;60.10
15483;DHT22;7843;50.330;7.312;2023-05-07T13:30:41;29.70;61.20
15483;DHT22;7843;50.330;7.312;2023-05-07T13:33:09;30.50;60.20
15483;DHT22;7843;50.330;7.312;2023-05-07T13:35:36;31.40;58.10
15483;DHT22;7843;50.330;7.312;2023-05-07T13:38:03;32.00;57.90
15483;DHT22;7843;50.330;7.312;2023-05-07T13:40:29;32.40;57.20
15483;DHT22;7843;50.330;7.312;2023-05-07T13:43:00;31.70;57.20
15483;DHT22;7843;50.330;7.312;2023-05-07T13:45:29;31.00;58.80
15483;DHT22;7843;50.330;7.312;2023-05-07T13:47:57;30.10;59.80
15483;DHT22;7843;50.330;7.312;2023-05-07T13:50:24;29.10;61.50
15483;DHT22;7843;50.330;7.312;2023-05-07T13:52:53;28.20;63.00
15483;DHT22;7843;50.330;7.312;2023-05-07T13:55:21;27.50;65.10
15483;DHT22;7843;50.330;7.312;2023-05-07T13:57:53;27.10;66.00
15483;DHT22;7843;50.330;7.312;2023-05-07T14:00:21;26.90;66.10
15483;DHT22;7843;50.330;7.312;2023-05-07T14:02:48;26.80;66.90
15483;DHT22;7843;50.330;7.312;2023-05-07T14:05:14;26.80;67.60
15483;DHT22;7843;50.330;7.312;2023-05-07T14:07:41;27.20;67.30
15483;DHT22;7843;50.330;7.312;2023-05-07T14:10:08;28.70;64.00
15483;DHT22;7843;50.330;7.312;2023-05-07T14:12:36;29.90;61.40
15483;DHT22;7843;50.330;7.312;2023-05-07T14:15:03;30.90;58.90
15483;DHT22;7843;50.330;7.312;2023-05-07T14:17:30;31.70;58.10
15483;DHT22;7843;50.330;7.312;2023-05-07T14:19:57;31.90;56.00
15483;DHT22;7843;50.330;7.312;2023-05-07T14:22:24;32.00;56.90
15483;DHT22;7843;50.330;7.312;2023-05-07T14:24:51;32.00;56.30
15483;DHT22;7843;50.330;7.312;2023-05-07T14:27:21;31.90;57.60
15483;DHT22;7843;50.330;7.312;2023-05-07T14:29:48;31.70;56.60
15483;DHT22;7843;50.330;7.312;2023-05-07T14:32:18;31.50;56.90
15483;DHT22;7843;50.330;7.312;2023-05-07T14:34:45;30.80;58.70
15483;DHT22;7843;50.330;7.312;2023-05-07T14:37:12;29.70;59.70
15483;DHT22;7843;50.330;7.312;2023-05-07T14:39:39;28.50;62.50
15483;DHT22;7843;50.330;7.312;2023-05-07T14:42:06;27.60;65.00
15483;DHT22;7843;50.330;7.312;2023-05-07T14:44:35;27.00;66.40
15483;DHT22;7843;50.330;7.312;2023-05-07T14:47:02;26.50;67.50
15483;DHT22;7843;50.330;7.312;2023-05-07T14:49:29;26.10;68.90
15483;DHT22;7843;50.330;7.312;2023-05-07T14:51:57;25.70;69.70
15483;DHT22;7843;50.330;7.312;2023-05-07T14:54:25;25.50;70.90
15483;DHT22;7843;50.330;7.312;2023-05-07T14:56:52;25.40;70.60
15483;DHT22;7843;50.330;7.312;2023-05-07T14:59:19;25.10;72.30
15483;DHT22;7843;50.330;7.312;2023-05-07T15:01:47;24.90;73.10
15483;DHT22;7843;50.330;7.312;2023-05-07T15:04:14;24.70;74.80
15483;DHT22;7843;50.330;7.312;2023-05-07T15:06:41;24.60;75.60
15483;DHT22;7843;50.330;7.312;2023-05-07T15:09:07;24.40;75.80
15483;DHT22;7843;50.330;7.312;2023-05-07T15:11:35;24.20;76.40
15483;DHT22;7843;50.330;7.312;2023-05-07T15:14:02;23.90;77.20
15483;DHT22;7843;50.330;7.312;2023-05-07T15:16:28;23.60;78.00
15483;DHT22;7843;50.330;7.312;2023-05-07T15:18:55;23.20;78.40
15483;DHT22;7843;50.330;7.312;2023-05-07T15:21:22;22.80;79.70
15483;DHT22;7843;50.330;7.312;2023-05-07T15:23:48;22.60;80.30
15483;DHT22;7843;50.330;7.312;2023-05-07T15:26:15;22.50;80.50
15483;DHT22;7843;50.330;7.312;2023-05-07T15:28:42;22.30;80.80
15483;DHT22;7843;50.330;7.312;2023-05-07T15:31:08;22.20;81.50
15483;DHT22;7843;50.330;7.312;2023-05-07T15:33:35;22.00;82.70
15483;DHT22;7843;50.330;7.312;2023-05-07T15:36:04;21.80;82.90
15483;DHT22;7843;50.330;7.312;2023-05-07T15:38:31;21.60;81.50
15483;DHT22;7843;50.330;7.312;2023-05-07T15:40:58;21.40;81.20
15483;DHT22;7843;50.330;7.312;2023-05-07T15:43:24;21.10;82.20
15483;DHT22;7843;50.330;7.312;2023-05-07T15:45:51;20.90;83.10
15483;DHT22;7843;50.330;7.312;2023-05-07T15:48:19;20.70;83.40
15483;DHT22;7843;50.330;7.312;2023-05-07T15:50:46;20.50;84.30
15483;DHT22;7843;50.330;7.312;2023-05-07T15:53:13;20.40;84.10
15483;DHT22;7843;50.330;7.312;2023-05-07T15:55:41;20.10;84.60
15483;DHT22;7843;50.330;7.312;2023-05-07T15:58:09;19.90;85.40
15483;DHT22;7843;50.330;7.312;2023-05-07T16:00:37;19.80;85.60
15483;DHT22;7843;50.330;7.312;2023-05-07T16:03:06;19.70;86.00